Time;durP1;ratioP1;P1;durP2;ratioP2;P2;SDS_P1;SDS_P2;PMS_P1;PMS_P2;Temp;Humidity;BMP_temperature;BMP_pressure;BME280_temperature;BME280_humidity;BME280_pressure;Samples;Min_cycle;Max_cycle;Signal;HPM_P1;HPM_P2
2021/03/25 00:02:30;;;;;;;24.10;18.55;;;;;;;8.29;57.74;101114.72;5025300;28;20053;-77
2021/03/25 00:05:35;;;;;;;26.77;19.23;;;;;;;8.28;57.67;101106.78;5025660;28;20072;-73
2021/03/25 00:08:39;;;;;;;26.73;18.80;;;;;;;8.24;57.86;101108.81;5022391;28;20385;-73
2021/03/25 00:11:44;;;;;;;26.52;18.23;;;;;;;8.20;58.31;101111.75;5023424;28;20041;-75
2021/03/25 00:14:48;;;;;;;23.95;17.85;;;;;;;8.17;58.23;101109.31;5024744;28;20045;-76
2021/03/25 00:17:52;;;;;;;25.63;19.27;;;;;;;8.12;58.38;101108.75;5025359;28;20092;-75
2021/03/25 00:20:57;;;;;;;27.98;19.52;;;;;;;8.08;58.56;101107.22;5021448;28;20412;-75
2021/03/25 00:24:04;;;;;;;25.45;18.83;;;;;;;8.06;58.72;101106.47;5022773;28;20068;-79
2021/03/25 00:27:08;;;;;;;24.67;18.23;;;;;;;8.03;58.85;101110.19;5024357;28;20049;-80
2021/03/25 00:30:16;;;;;;;22.83;17.92;;;;;;;8.05;58.77;101107.44;5025170;28;20584;-74
2021/03/25 00:33:21;;;;;;;20.98;17.13;;;;;;;8.03;58.78;101094.16;5021217;28;20527;-77
2021/03/25 00:36:26;;;;;;;23.05;17.30;;;;;;;7.92;59.31;101098.50;5024185;28;20393;-74
2021/03/25 00:39:30;;;;;;;28.77;18.90;;;;;;;7.86;59.54;101084.56;5024568;28;20052;-78
2021/03/25 00:42:35;;;;;;;24.10;17.55;;;;;;;7.86;59.57;101089.03;5025112;28;20095;-75
2021/03/25 00:45:46;;;;;;;22.38;17.58;;;;;;;7.84;59.49;101091.84;5023620;28;20515;-74
2021/03/25 00:48:50;;;;;;;24.08;17.30;;;;;;;7.85;59.53;101088.19;5023597;28;20041;-80
2021/03/25 00:51:54;;;;;;;22.50;17.33;;;;;;;7.84;59.70;101094.50;5024927;28;20508;-74
2021/03/25 00:54:59;;;;;;;24.65;17.73;;;;;;;7.88;59.57;101079.09;5020561;28;20053;-74
2021/03/25 00:58:03;;;;;;;26.02;18.30;;;;;;;7.88;59.75;101084.44;5024017;28;20048;-73
2021/03/25 01:01:08;;;;;;;23.10;16.73;;;;;;;7.86;59.76;101081.03;5022553;28;20049;-74
2021/03/25 01:04:13;;;;;;;22.80;17.42;;;;;;;7.86;60.06;101078.34;5024373;28;20048;-73
2021/03/25 01:07:24;;;;;;;26.42;16.73;;;;;;;7.86;59.89;101081.03;5020402;28;20053;-74
2021/03/25 01:10:36;;;;;;;22.77;16.92;;;;;;;7.84;59.89;101081.13;5023773;28;20401;-75
2021/03/25 01:13:52;;;;;;;23.15;16.38;;;;;;;7.84;60.10;101082.94;5021248;28;20053;-75
2021/03/25 01:17:01;;;;;;;23.30;17.08;;;;;;;7.84;60.09;101077.59;5020509;28;20040;-76
2021/03/25 01:20:25;;;;;;;25.73;17.08;;;;;;;7.83;60.38;101075.88;5023027;28;20044;-75
2021/03/25 01:23:29;;;;;;;21.77;16.10;;;;;;;7.85;59.93;101080.16;5022698;28;20058;-74
2021/03/25 01:26:34;;;;;;;23.63;16.10;;;;;;;7.83;60.21;101078.53;5024196;28;20287;-76
2021/03/25 01:29:39;;;;;;;20.60;15.35;;;;;;;7.82;60.09;101077.72;5022196;28;20401;-74
2021/03/25 01:32:44;;;;;;;22.23;15.60;;;;;;;7.82;60.12;101082.19;5022692;28;20048;-75
2021/03/25 01:35:49;;;;;;;20.50;14.13;;;;;;;7.79;60.42;101082.38;5022384;28;20068;-77
2021/03/25 01:38:53;;;;;;;19.65;13.68;;;;;;;7.77;60.39;101077.16;5023178;28;20044;-79
2021/03/25 01:41:58;;;;;;;21.63;14.45;;;;;;;7.76;60.56;101071.88;5019593;28;20504;-77
2021/03/25 01:45:28;;;;;;;18.42;14.52;;;;;;;7.79;60.47;101069.88;5020434;28;20048;-77
2021/03/25 01:48:38;;;;;;;18.98;13.98;;;;;;;7.76;60.05;101071.88;5023973;28;20052;-77
2021/03/25 01:52:02;;;;;;;18.52;14.57;;;;;;;7.72;60.51;101065.91;5021765;28;20403;-74
2021/03/25 01:55:17;;;;;;;17.08;13.70;;;;;;;7.70;60.72;101064.28;5023198;28;20507;-74
2021/03/25 01:58:44;;;;;;;19.90;13.52;;;;;;;7.68;60.90;101069.72;5020457;28;20516;-77
2021/03/25 02:01:58;;;;;;;18.15;13.43;;;;;;;7.67;60.63;101065.34;5022117;28;20049;-73
2021/03/25 02:05:25;;;;;;;19.70;12.90;;;;;;;7.65;60.73;101066.41;5020735;28;20052;-77
2021/03/25 02:09:14;;;;;;;20.33;13.32;;;;;;;7.65;61.04;101072.56;5033367;28;20064;-76
2021/03/25 02:12:45;;;;;;;19.85;13.48;;;;;;;7.63;61.09;101068.28;5019158;28;20428;-75
2021/03/25 02:16:02;;;;;;;19.70;12.40;;;;;;;7.63;60.98;101066.47;5022071;28;20044;-75
2021/03/25 02:19:36;;;;;;;20.60;13.23;;;;;;;7.63;61.10;101069.16;5033219;28;20041;-75
2021/03/25 02:23:03;;;;;;;24.15;12.40;;;;;;;7.61;60.97;101067.53;5008953;28;20053;-75
2021/03/25 02:26:15;;;;;;;16.80;12.85;;;;;;;7.62;61.13;101070.13;5021393;28;20113;-74
2021/03/25 02:29:39;;;;;;;19.90;11.88;;;;;;;7.64;60.98;101072.69;5020521;28;20049;-82
2021/03/25 02:33:03;;;;;;;18.30;12.45;;;;;;;7.61;61.38;101067.53;5028643;28;20084;-74
2021/03/25 02:36:28;;;;;;;19.70;12.32;;;;;;;7.64;61.19;101072.69;5019643;28;20053;-75
2021/03/25 02:39:45;;;;;;;15.98;12.18;;;;;;;7.58;61.52;101065.06;5020944;28;20409;-73
2021/03/25 02:43:11;;;;;;;17.95;12.32;;;;;;;7.53;61.82;101064.50;5020958;28;20045;-73
2021/03/25 02:46:32;;;;;;;17.77;12.90;;;;;;;7.49;61.99;101062.97;5011975;28;20073;-74
2021/03/25 02:50:02;;;;;;;17.35;12.63;;;;;;;7.47;62.05;101056.88;5022761;28;21391;-74
2021/03/25 02:53:40;;;;;;;20.48;12.40;;;;;;;7.46;62.02;101060.50;5021958;28;20040;-75
2021/03/25 02:56:50;;;;;;;15.77;11.98;;;;;;;7.44;62.11;101068.63;5032573;28;20408;-75
2021/03/25 03:00:00;;;;;;;17.20;12.15;;;;;;;7.41;62.32;101059.91;5034109;28;20044;-77
2021/03/25 03:03:16;;;;;;;15.63;11.48;;;;;;;7.39;62.23;101067.19;5020025;28;20405;-74
2021/03/25 03:06:47;;;;;;;17.95;12.82;;;;;;;7.37;62.16;101066.44;5020734;28;20041;-75
2021/03/25 03:10:00;;;;;;;21.15;12.93;;;;;;;7.34;62.21;101061.28;5014477;28;20048;-75
2021/03/25 03:13:08;;;;;;;15.98;11.07;;;;;;;7.41;61.98;101073.28;5023690;28;20060;-73
2021/03/25 03:16:26;;;;;;;14.75;12.13;;;;;;;7.44;62.02;101073.97;5025561;28;20049;-75
2021/03/25 03:20:12;;;;;;;15.05;11.70;;;;;;;7.45;61.97;101085.50;5025687;28;20049;-76
2021/03/25 03:23:38;;;;;;;16.65;11.57;;;;;;;7.47;61.84;101084.44;5026660;28;20065;-75
2021/03/25 03:26:50;;;;;;;17.65;12.05;;;;;;;7.47;61.85;101079.09;5022744;28;20065;-72
2021/03/25 03:29:58;;;;;;;14.73;10.95;;;;;;;7.49;61.85;101079.88;5031819;28;20049;-76
2021/03/25 03:33:14;;;;;;;19.40;11.35;;;;;;;7.41;62.00;101076.81;4999356;28;20049;-73
2021/03/25 03:36:23;;;;;;;16.85;11.55;;;;;;;7.31;62.47;101082.84;5018907;28;20053;-73
2021/03/25 03:39:30;;;;;;;16.60;12.25;;;;;;;7.29;62.50;101066.03;5019919;28;20061;-74
2021/03/25 03:42:39;;;;;;;16.88;11.52;;;;;;;7.21;62.76;101075.41;5024211;28;20045;-75
2021/03/25 03:45:52;;;;;;;16.02;11.23;;;;;;;7.14;62.94;101082.06;5023255;28;20057;-73
2021/03/25 03:49:11;;;;;;;19.63;12.65;;;;;;;7.14;63.10;101071.41;5021473;28;20496;-74
2021/03/25 03:52:24;;;;;;;21.27;11.93;;;;;;;7.10;63.39;101075.22;5026209;28;20400;-75
2021/03/25 03:55:34;;;;;;;17.58;11.93;;;;;;;7.03;63.34;101076.56;5024972;28;20056;-74
2021/03/25 03:58:50;;;;;;;15.93;11.25;;;;;;;7.11;63.23;101076.09;5014282;28;20056;-73
2021/03/25 04:02:08;;;;;;;15.93;11.93;;;;;;;7.05;63.54;101077.31;5024909;28;20048;-73
2021/03/25 04:05:25;;;;;;;15.38;11.88;;;;;;;7.01;63.69;101086.44;5024599;28;20053;-72
2021/03/25 04:09:02;;;;;;;14.65;11.68;;;;;;;7.01;63.85;101093.63;5021948;28;20049;-79
2021/03/25 04:12:16;;;;;;;16.60;11.48;;;;;;;7.10;63.74;101085.03;5024262;28;20163;-78
2021/03/25 04:15:29;;;;;;;17.92;11.43;;;;;;;6.93;64.04;101088.75;5022083;28;20053;-76
2021/03/25 04:18:54;;;;;;;16.90;11.63;;;;;;;6.87;64.27;101098.91;5014928;28;20049;-76
2021/03/25 04:22:25;;;;;;;18.75;11.95;;;;;;;6.88;64.41;101096.19;5025786;28;20053;-75
2021/03/25 04:25:51;;;;;;;17.63;12.00;;;;;;;6.89;64.21;101091.66;5024285;28;20053;-76
2021/03/25 04:29:10;;;;;;;15.98;11.60;;;;;;;6.88;64.33;101084.63;5025248;28;20515;-74
2021/03/25 04:32:15;;;;;;;17.13;12.48;;;;;;;6.86;64.52;101097.22;5025248;28;20045;-76
2021/03/25 04:35:21;;;;;;;15.55;10.73;;;;;;;6.85;64.68;101095.50;5019347;28;20049;-74
2021/03/25 04:38:32;;;;;;;19.00;11.30;;;;;;;6.81;64.42;101091.31;5013051;28;20053;-75
2021/03/25 04:41:39;;;;;;;14.40;11.38;;;;;;;6.74;64.96;101097.97;5035808;28;20041;-75
2021/03/25 04:44:59;;;;;;;13.73;10.90;;;;;;;6.70;65.00;101099.94;5022031;28;20065;-75
2021/03/25 04:48:05;;;;;;;15.35;11.13;;;;;;;6.64;65.35;101094.97;4982627;28;20394;-76
2021/03/25 04:51:14;;;;;;;16.02;11.45;;;;;;;6.63;65.18;101095.94;4984268;28;20509;-73
2021/03/25 04:54:30;;;;;;;16.80;10.55;;;;;;;6.61;65.47;101103.16;4986078;28;20500;-76
2021/03/25 04:57:43;;;;;;;16.58;11.18;;;;;;;6.70;65.10;101089.28;4984863;28;20071;-75
2021/03/25 05:00:47;;;;;;;14.82;10.52;;;;;;;6.82;64.65;101093.88;4984277;28;20042;-73
2021/03/25 05:03:57;;;;;;;15.32;10.75;;;;;;;6.82;64.52;101088.53;4975021;28;20057;-74
2021/03/25 05:07:03;;;;;;;18.75;11.80;;;;;;;6.80;64.81;101109.09;4983379;28;20046;-73
2021/03/25 05:10:21;;;;;;;14.10;10.77;;;;;;;6.74;65.05;101111.31;4983405;28;20398;-73
2021/03/25 05:13:36;;;;;;;13.07;10.73;;;;;;;6.83;64.52;101116.06;4982363;28;20062;-74
2021/03/25 05:16:46;;;;;;;;;;;;;;;6.79;64.56;101123.38;4979726;28;20054;-76
2021/03/25 05:20:22;;;;;;;15.75;11.48;;;;;;;6.67;65.00;101129.47;4975461;28;19919;-75
2021/03/25 05:24:05;;;;;;;16.92;11.52;;;;;;;6.58;65.40;101124.69;4982917;28;20041;-77
2021/03/25 05:27:19;;;;;;;19.92;11.05;;;;;;;6.59;65.54;101126.41;4989551;28;20054;-77
2021/03/25 05:30:31;;;;;;;15.45;11.23;;;;;;;6.59;65.37;101128.22;4981507;28;20061;-78
2021/03/25 05:33:37;;;;;;;15.35;11.48;;;;;;;6.60;65.77;101133.44;4984921;28;20045;-77
2021/03/25 05:36:42;;;;;;;19.35;12.52;;;;;;;6.72;65.17;101142.53;4981538;28;20528;-75
2021/03/25 05:39:46;;;;;;;20.73;12.65;;;;;;;6.77;64.95;101137.78;4973398;28;20050;-75
2021/03/25 05:42:57;;;;;;;13.90;10.93;;;;;;;6.81;64.85;101142.00;4984044;28;20069;-76
2021/03/25 05:46:13;;;;;;;17.58;11.90;;;;;;;6.88;64.54;101140.66;4991867;28;20501;-74
2021/03/25 05:49:53;;;;;;;15.40;11.55;;;;;;;6.98;64.18;101134.69;5024059;28;20044;-76
2021/03/25 05:52:58;;;;;;;16.00;11.30;;;;;;;7.15;63.58;101144.34;5024147;28;20049;-73
2021/03/25 05:56:26;;;;;;;18.83;12.85;;;;;;;7.21;63.34;101138.59;5020324;28;20061;-73
2021/03/25 05:59:40;;;;;;;16.63;11.38;;;;;;;7.31;63.06;101136.25;5021728;28;20049;-75
2021/03/25 06:02:59;;;;;;;15.73;11.10;;;;;;;7.44;62.63;101142.53;5013059;28;20411;-76
2021/03/25 06:06:04;;;;;;;18.17;11.13;;;;;;;7.68;61.88;101136.50;5020676;28;20041;-75
2021/03/25 06:09:29;;;;;;;14.95;10.65;;;;;;;7.86;61.12;101132.69;5022510;28;20397;-74
2021/03/25 06:12:58;;;;;;;39.22;28.50;;;;;;;8.09;60.54;101128.53;5024160;28;20049;-74
2021/03/25 06:16:35;;;;;;;106.35;71.28;;;;;;;8.20;60.15;101134.00;5020047;28;20159;-75
2021/03/25 06:19:50;;;;;;;21.75;11.95;;;;;;;8.40;59.43;101133.59;5024077;28;20037;-77
2021/03/25 06:23:19;;;;;;;15.57;11.05;;;;;;;8.73;58.51;101140.31;5016068;28;20068;-82
2021/03/25 06:26:32;;;;;;;13.88;10.45;;;;;;;9.14;57.42;101135.66;5020094;28;20049;-76
2021/03/25 06:29:44;;;;;;;16.77;9.85;;;;;;;9.22;56.87;101143.16;5023354;28;20049;-76
2021/03/25 06:33:04;;;;;;;16.63;10.88;;;;;;;9.25;56.91;101153.66;5021836;28;20048;-77
2021/03/25 06:36:15;;;;;;;19.52;11.57;;;;;;;9.60;56.16;101147.53;5020857;28;20402;-82
2021/03/25 06:39:30;;;;;;;15.07;11.27;;;;;;;9.89;55.62;101156.19;5023021;28;20048;-81
2021/03/25 06:42:47;;;;;;;15.90;9.90;;;;;;;10.67;56.40;101160.19;5025743;28;20044;-81
2021/03/25 06:46:06;;;;;;;15.57;10.45;;;;;;;10.82;54.55;101166.25;5026033;28;20053;-82
2021/03/25 06:49:16;;;;;;;16.25;10.15;;;;;;;10.72;53.52;101160.72;5025631;28;20038;-79
2021/03/25 06:52:29;;;;;;;14.18;10.45;;;;;;;10.84;53.07;101167.84;5027620;28;20038;-80
2021/03/25 06:55:33;;;;;;;15.65;10.30;;;;;;;10.76;53.63;101172.94;5025087;28;20396;-82
2021/03/25 06:58:54;;;;;;;11.55;8.93;;;;;;;10.99;53.31;101179.25;5036452;28;20049;-79
2021/03/25 07:02:17;;;;;;;14.63;10.80;;;;;;;10.91;53.71;101171.75;5034656;28;20385;-89
2021/03/25 07:05:28;;;;;;;18.08;9.75;;;;;;;10.91;53.90;101179.81;5016698;28;20064;-73
2021/03/25 07:08:33;;;;;;;14.45;10.18;;;;;;;11.35;52.85;101183.63;5017238;28;20078;-81
2021/03/25 07:11:38;;;;;;;15.63;10.05;;;;;;;11.84;51.47;101180.63;5018476;28;20030;-87
2021/03/25 07:14:45;;;;;;;17.27;9.25;;;;;;;12.01;51.02;101189.06;5023987;28;20045;-73
2021/03/25 07:17:53;;;;;;;15.55;10.07;;;;;;;12.35;50.35;101193.44;5018315;28;20044;-77
2021/03/25 07:21:34;;;;;;;14.65;9.68;;;;;;;12.97;48.89;101192.72;5019550;28;20037;-83
2021/03/25 07:24:39;;;;;;;14.48;9.45;;;;;;;14.15;46.58;101201.25;5033020;28;20049;-79
2021/03/25 07:27:44;;;;;;;16.88;10.10;;;;;;;15.30;42.71;101198.72;5028266;28;20040;-79
2021/03/25 07:30:52;;;;;;;16.10;9.85;;;;;;;14.93;44.47;101202.19;5017481;28;20038;-82
2021/03/25 07:33:58;;;;;;;20.00;10.00;;;;;;;14.75;46.60;101208.41;5016288;28;20053;-79
2021/03/25 07:37:04;;;;;;;20.75;11.10;;;;;;;16.08;43.82;101201.97;5025899;28;20037;-78
2021/03/25 07:40:31;;;;;;;19.92;10.13;;;;;;;17.89;40.23;101206.13;5035131;28;20046;-76
2021/03/25 07:43:56;;;;;;;14.90;9.88;;;;;;;23.61;30.63;101197.41;5027755;28;20046;-81
2021/03/25 07:47:05;;;;;;;15.48;9.70;;;;;;;28.75;23.86;101192.22;5015968;28;20049;-74
2021/03/25 07:50:25;;;;;;;19.00;9.55;;;;;;;31.29;20.90;101198.81;5014991;28;20124;-87
2021/03/25 07:53:30;;;;;;;20.73;8.90;;;;;;;33.26;19.02;101188.59;5001403;28;20508;-79
2021/03/25 07:56:34;;;;;;;10.40;8.60;;;;;;;33.62;18.52;101189.78;5010796;28;20396;-79
2021/03/25 07:59:44;;;;;;;14.98;8.98;;;;;;;34.28;17.78;101194.72;5014285;28;20053;-78
2021/03/25 08:03:12;;;;;;;13.90;10.68;;;;;;;36.16;16.77;101194.81;5013836;28;20049;-84
2021/03/25 08:06:20;;;;;;;13.85;10.60;;;;;;;36.36;16.05;101194.78;5015391;28;20049;-79
2021/03/25 08:09:27;;;;;;;13.60;11.57;;;;;;;36.43;15.57;101200.91;5016130;28;20045;-81
2021/03/25 08:12:36;;;;;;;13.75;10.85;;;;;;;37.21;15.34;101198.28;5014997;28;20042;-75
2021/03/25 08:16:08;;;;;;;13.65;10.85;;;;;;;37.33;14.63;101193.19;5015460;28;20046;-81
2021/03/25 08:19:20;;;;;;;14.68;11.07;;;;;;;35.32;16.03;101193.72;5026151;28;20037;-75
2021/03/25 08:22:40;;;;;;;12.73;11.43;;;;;;;37.12;15.12;101198.06;5014115;28;20042;-76
2021/03/25 08:25:48;;;;;;;17.73;10.85;;;;;;;36.56;15.14;101195.84;5014282;28;20042;-75
2021/03/25 08:29:16;;;;;;;12.60;10.52;;;;;;;37.11;14.94;101195.53;5015459;28;20050;-77
2021/03/25 08:32:39;;;;;;;11.52;10.30;;;;;;;37.34;14.50;101197.63;5017508;28;20478;-87
2021/03/25 08:36:09;;;;;;;13.02;11.68;;;;;;;35.93;15.35;101195.38;5020518;28;20053;-82
2021/03/25 08:39:29;;;;;;;15.68;10.05;;;;;;;39.69;13.55;101193.44;5035074;28;20049;-82
2021/03/25 08:43:01;;;;;;;17.52;10.00;;;;;;;40.00;12.86;101192.56;5034611;28;20033;-75
2021/03/25 08:46:12;;;;;;;;;;;;;;;41.05;12.55;101191.53;5034880;28;20404;-79
2021/03/25 08:49:31;;;;;;;12.00;9.80;;;;;;;40.08;12.91;101194.69;5035127;28;20356;-78
2021/03/25 08:52:39;;;;;;;13.27;10.32;;;;;;;38.64;13.71;101193.88;5034337;28;20056;-85
2021/03/25 08:55:44;;;;;;;13.40;10.20;;;;;;;37.07;14.89;101192.50;5034291;28;20033;-74
2021/03/25 08:58:55;;;;;;;11.18;10.00;;;;;;;39.93;13.07;101200.56;5018093;28;20489;-76
2021/03/25 09:02:31;;;;;;;12.07;9.98;;;;;;;37.51;14.62;101197.25;5013276;28;20045;-74
2021/03/25 09:05:40;;;;;;;11.20;9.30;;;;;;;40.21;12.86;101185.44;5012649;28;20064;-75
2021/03/25 09:08:46;;;;;;;11.45;10.13;;;;;;;37.07;14.65;101188.88;5012888;28;20049;-73
2021/03/25 09:11:50;;;;;;;15.38;10.63;;;;;;;36.79;14.87;101187.59;5014538;28;20041;-75
2021/03/25 09:14:57;;;;;;;14.93;11.00;;;;;;;34.99;16.68;101193.06;5013686;28;20485;-75
2021/03/25 09:18:07;;;;;;;15.57;11.82;;;;;;;31.61;18.81;101190.78;5016764;28;20057;-76
2021/03/25 09:21:16;;;;;;;14.20;11.38;;;;;;;29.70;20.76;101187.59;4994611;28;20042;-75
2021/03/25 09:24:22;;;;;;;14.13;11.93;;;;;;;28.37;22.42;101189.69;5021219;28;20045;-77
2021/03/25 09:28:00;;;;;;;17.92;12.48;;;;;;;25.68;25.29;101194.03;5013367;28;20042;-74
2021/03/25 09:31:08;;;;;;;16.75;13.57;;;;;;;23.85;27.65;101196.94;5011403;28;20050;-74
2021/03/25 09:34:14;;;;;;;19.45;13.70;;;;;;;22.62;29.56;101192.81;4979086;28;20041;-75
2021/03/25 09:37:23;;;;;;;16.90;13.43;;;;;;;22.28;30.12;101192.53;5011940;28;20049;-77
2021/03/25 09:40:44;;;;;;;18.98;15.13;;;;;;;20.77;32.49;101194.59;5011593;28;20057;-75
2021/03/25 09:43:54;;;;;;;20.67;17.20;;;;;;;19.55;34.53;101184.31;5010412;28;20436;-77
2021/03/25 09:46:59;;;;;;;22.20;17.48;;;;;;;19.55;34.94;101198.78;5010744;28;20297;-75
2021/03/25 09:50:17;;;;;;;22.27;17.05;;;;;;;19.60;34.92;101188.22;5007156;28;20045;-76
2021/03/25 09:53:21;;;;;;;27.45;21.10;;;;;;;19.48;34.61;101195.00;5031376;28;20057;-75
2021/03/25 09:56:28;;;;;;;29.08;22.58;;;;;;;19.14;36.01;101197.88;5030802;28;20049;-75
2021/03/25 09:59:58;;;;;;;29.75;22.67;;;;;;;18.86;35.49;101195.66;5031490;28;20512;-80
2021/03/25 10:03:06;;;;;;;35.55;23.15;;;;;;;18.59;36.15;101184.00;4991974;28;20050;-74
2021/03/25 10:06:43;;;;;;;34.00;25.50;;;;;;;18.26;37.73;101190.34;5009398;28;20046;-73
2021/03/25 10:09:53;;;;;;;30.33;24.10;;;;;;;18.60;38.08;101187.59;5013451;28;20042;-75
2021/03/25 10:13:01;;;;;;;34.25;24.13;;;;;;;18.55;38.33;101193.53;5011177;28;20050;-74
2021/03/25 10:16:34;;;;;;;35.38;26.45;;;;;;;17.96;38.84;101199.03;5014640;28;20050;-74
2021/03/25 10:19:45;;;;;;;36.65;24.85;;;;;;;17.74;38.50;101196.84;5017470;28;20045;-76
2021/03/25 10:22:54;;;;;;;32.72;25.02;;;;;;;17.79;39.73;101191.81;5016759;28;20038;-74
2021/03/25 10:26:01;;;;;;;32.17;26.00;;;;;;;17.51;39.03;101194.63;5027330;28;20054;-74
2021/03/25 10:29:13;;;;;;;37.42;27.63;;;;;;;17.42;39.08;101184.75;5014957;28;20054;-73
2021/03/25 10:32:30;;;;;;;37.05;28.08;;;;;;;17.93;37.76;101183.03;5014861;28;20042;-77
2021/03/25 10:35:51;;;;;;;39.45;29.27;;;;;;;17.96;37.94;101177.28;5016425;28;20050;-75
2021/03/25 10:39:01;;;;;;;38.70;28.33;;;;;;;18.09;36.76;101181.28;4997478;28;20038;-74
2021/03/25 10:42:17;;;;;;;35.38;28.65;;;;;;;18.00;37.15;101178.66;5014845;28;20046;-77
2021/03/25 10:45:37;;;;;;;42.45;29.20;;;;;;;17.95;37.32;101170.16;5016928;28;20042;-75
2021/03/25 10:48:43;;;;;;;38.88;29.85;;;;;;;18.04;37.52;101167.34;5016774;28;20038;-75
2021/03/25 10:51:49;;;;;;;37.47;29.52;;;;;;;18.13;36.62;101154.63;5015652;28;20045;-79
2021/03/25 10:54:57;;;;;;;37.42;29.65;;;;;;;18.13;37.19;101157.34;5015731;28;20054;-75
2021/03/25 10:58:04;;;;;;;37.15;29.27;;;;;;;18.04;37.29;101163.75;5018183;28;20050;-74
2021/03/25 11:01:24;;;;;;;41.70;30.85;;;;;;;17.64;36.88;101152.66;5016814;28;20042;-76
2021/03/25 11:04:31;;;;;;;36.67;30.77;;;;;;;17.93;36.34;101145.00;5016585;28;20049;-75
2021/03/25 11:07:40;;;;;;;40.30;32.25;;;;;;;18.04;36.03;101144.75;5004629;28;20481;-75
2021/03/25 11:10:51;;;;;;;39.63;31.50;;;;;;;18.22;36.89;101150.91;5016670;28;20050;-74
2021/03/25 11:14:18;;;;;;;40.53;31.90;;;;;;;18.18;37.29;101149.53;5015607;28;20046;-74
2021/03/25 11:17:32;;;;;;;45.40;30.83;;;;;;;18.17;36.75;101137.81;5015579;28;20042;-75
2021/03/25 11:20:38;;;;;;;41.85;32.67;;;;;;;18.28;37.41;101135.81;5016444;28;20038;-75
2021/03/25 11:23:43;;;;;;;41.97;31.75;;;;;;;18.20;36.52;101131.19;5016201;28;20046;-75
2021/03/25 11:27:19;;;;;;;39.70;32.83;;;;;;;18.11;37.42;101133.06;5000324;28;20050;-75
2021/03/25 11:30:31;;;;;;;41.83;33.92;;;;;;;17.99;37.34;101126.22;5016011;28;20054;-75
2021/03/25 11:33:39;;;;;;;46.60;34.03;;;;;;;18.20;36.50;101129.34;5016263;28;20046;-74
2021/03/25 11:36:46;;;;;;;40.38;32.47;;;;;;;17.79;38.26;101123.91;4996732;28;20489;-74
2021/03/25 11:40:07;;;;;;;41.20;32.90;;;;;;;17.91;37.53;101130.75;4996434;28;20046;-75
2021/03/25 11:43:18;;;;;;;42.88;33.95;;;;;;;17.78;37.35;101122.19;4996353;28;20046;-75
2021/03/25 11:46:45;;;;;;;43.38;34.53;;;;;;;17.77;37.15;101121.38;4996085;28;20046;-73
2021/03/25 11:49:51;;;;;;;49.25;36.47;;;;;;;18.02;36.34;101112.28;4984227;28;20474;-74
2021/03/25 11:53:00;;;;;;;43.58;35.17;;;;;;;17.91;36.17;101109.03;4995187;28;20046;-75
2021/03/25 11:56:07;;;;;;;45.67;35.35;;;;;;;17.87;36.39;101094.94;4995714;28;20042;-75
2021/03/25 11:59:14;;;;;;;46.83;36.95;;;;;;;17.86;35.98;101105.94;4995847;28;20047;-75
2021/03/25 12:02:20;;;;;;;49.72;36.90;;;;;;;17.87;36.79;101107.66;4995717;28;20047;-74
2021/03/25 12:05:27;;;;;;;51.20;39.08;;;;;;;18.02;36.07;101100.59;4997875;28;20038;-75
2021/03/25 12:08:34;;;;;;;50.95;38.67;;;;;;;17.94;36.56;101097.84;5015278;28;20046;-75
2021/03/25 12:11:41;;;;;;;48.53;37.15;;;;;;;18.03;36.31;101094.97;5015573;28;20045;-75
2021/03/25 12:14:46;;;;;;;44.17;36.20;;;;;;;17.97;36.65;101087.47;5015180;28;20042;-75
2021/03/25 12:17:55;;;;;;;49.63;38.63;;;;;;;18.01;37.27;101067.13;5015402;28;20054;-73
2021/03/25 12:21:04;;;;;;;50.50;37.65;;;;;;;18.03;36.77;101075.09;5014502;28;20045;-73
2021/03/25 12:24:10;;;;;;;50.08;37.55;;;;;;;18.01;37.17;101069.00;5014263;28;20049;-73
2021/03/25 12:27:21;;;;;;;53.15;39.30;;;;;;;18.06;37.15;101059.34;5014778;28;20054;-72
2021/03/25 12:30:25;;;;;;;46.47;40.35;;;;;;;18.17;36.43;101052.75;5015133;28;20042;-74
2021/03/25 12:33:36;;;;;;;52.15;40.20;;;;;;;18.14;36.78;101053.06;5014744;28;20054;-77
2021/03/25 12:36:41;;;;;;;50.97;38.92;;;;;;;18.07;36.38;101054.75;5013464;28;20042;-75
2021/03/25 12:39:45;;;;;;;52.95;40.63;;;;;;;18.03;36.10;101046.06;5011953;28;20034;-74
2021/03/25 12:42:50;;;;;;;52.70;42.17;;;;;;;17.97;36.02;101037.75;5011326;28;20046;-74
2021/03/25 12:45:59;;;;;;;59.95;44.78;;;;;;;17.90;36.38;101032.09;5010898;28;20525;-75
2021/03/25 12:49:04;;;;;;;52.15;43.55;;;;;;;17.91;36.64;101030.25;5011484;28;20053;-75
2021/03/25 12:52:08;;;;;;;53.75;41.67;;;;;;;17.86;36.67;101019.88;5012634;28;20045;-74
2021/03/25 12:55:13;;;;;;;55.88;43.13;;;;;;;17.94;36.45;101011.75;5013339;28;20038;-74
2021/03/25 12:58:33;;;;;;;53.35;43.22;;;;;;;18.13;36.37;101018.75;5014966;28;20042;-74
2021/03/25 13:01:38;;;;;;;54.42;41.75;;;;;;;18.22;36.31;101012.31;5025354;28;20042;-73
2021/03/25 13:04:43;;;;;;;55.42;44.65;;;;;;;18.29;36.12;100997.06;5014873;28;20045;-73
2021/03/25 13:07:48;;;;;;;65.00;44.90;;;;;;;18.21;35.32;100997.03;5013872;28;20050;-74
2021/03/25 13:10:53;;;;;;;55.83;43.63;;;;;;;18.27;35.02;100985.47;5015083;28;20377;-74
2021/03/25 13:13:59;;;;;;;54.30;45.03;;;;;;;18.30;34.45;100984.28;5014692;28;20046;-72
2021/03/25 13:17:04;;;;;;;64.68;46.85;;;;;;;18.20;34.42;100987.16;5014671;28;20497;-73
2021/03/25 13:20:10;;;;;;;57.65;44.22;;;;;;;18.15;35.24;100979.53;5014630;28;20046;-74
2021/03/25 13:23:14;;;;;;;56.55;44.70;;;;;;;18.25;34.86;100973.94;5014739;28;20046;-74
2021/03/25 13:26:19;;;;;;;59.63;44.88;;;;;;;18.23;34.05;100973.25;5014447;28;20465;-74
2021/03/25 13:29:24;;;;;;;62.65;46.45;;;;;;;18.23;34.33;100967.81;5014475;28;20433;-74
2021/03/25 13:32:28;;;;;;;64.30;47.60;;;;;;;18.32;34.63;100964.06;5014133;28;20054;-75
2021/03/25 13:35:34;;;;;;;58.20;46.17;;;;;;;18.39;34.52;100962.41;5013672;28;20054;-74
2021/03/25 13:38:39;;;;;;;59.80;44.75;;;;;;;18.48;34.96;100953.25;5013899;28;20041;-74
2021/03/25 13:41:43;;;;;;;56.65;44.42;;;;;;;18.32;35.51;100949.66;5011808;28;20042;-76
2021/03/25 13:44:48;;;;;;;60.60;45.55;;;;;;;18.37;35.84;100937.22;5013293;28;20401;-75
2021/03/25 13:47:53;;;;;;;57.72;45.03;;;;;;;18.41;35.17;100941.31;5012849;28;20436;-75
2021/03/25 13:51:02;;;;;;;56.85;45.33;;;;;;;18.34;35.13;100931.31;5012988;28;20037;-75
2021/03/25 13:54:06;;;;;;;63.97;46.67;;;;;;;18.27;35.76;100922.97;5013577;28;20477;-75
2021/03/25 13:57:11;;;;;;;60.30;47.25;;;;;;;18.34;35.63;100917.72;5013503;28;20042;-78
2021/03/25 14:00:16;;;;;;;61.03;46.70;;;;;;;18.39;35.12;100928.91;5013750;28;20038;-75
2021/03/25 14:03:22;;;;;;;61.20;47.28;;;;;;;18.44;35.79;100918.38;5013346;28;20046;-73
2021/03/25 14:06:27;;;;;;;60.47;46.53;;;;;;;18.41;35.84;100921.44;5013247;28;20038;-77
2021/03/25 14:09:31;;;;;;;62.33;47.05;;;;;;;18.33;36.43;100918.72;5013121;28;20042;-77
2021/03/25 14:12:36;;;;;;;63.25;47.17;;;;;;;18.40;35.91;100911.56;5013396;28;20038;-75
2021/03/25 14:15:43;;;;;;;61.25;48.03;;;;;;;18.43;34.95;100912.09;5023497;28;20041;-75
2021/03/25 14:18:48;;;;;;;62.72;46.55;;;;;;;18.43;35.65;100914.81;5013445;28;20058;-73
2021/03/25 14:21:53;;;;;;;66.88;46.95;;;;;;;18.44;36.06;100910.22;5013391;28;20393;-77
2021/03/25 14:24:57;;;;;;;63.45;48.33;;;;;;;18.55;35.19;100902.59;5013209;28;20042;-76
2021/03/25 14:28:03;;;;;;;62.60;47.45;;;;;;;18.53;34.98;100899.19;5013236;28;20049;-77
2021/03/25 14:31:07;;;;;;;60.88;49.28;;;;;;;18.44;35.33;100894.75;5012991;28;20042;-75
2021/03/25 14:34:11;;;;;;;60.97;47.42;;;;;;;18.47;36.03;100888.16;5013343;28;20046;-75
2021/03/25 14:37:16;;;;;;;63.28;45.95;;;;;;;18.65;35.77;100881.50;5012286;28;20049;-75
2021/03/25 14:40:22;;;;;;;66.55;50.35;;;;;;;18.54;35.30;100890.00;5023626;28;20046;-79
2021/03/25 14:43:29;;;;;;;64.03;47.05;;;;;;;18.56;35.65;100887.13;5012096;28;20042;-78